sensor_id;sensor_type;location;lat;lon;timestamp;P1;durP1;ratioP1;P2;durP2;ratioP2
19946;SDS011;10135;50.702;7.276;2022-10-01T05:32:11;2.03;;;0.77;;
19946;SDS011;10135;50.702;7.276;2022-10-01T05:34:12;0.60;;;0.60;;
19946;SDS011;10135;50.702;7.276;2022-10-01T05:36:13;0.70;;;0.70;;
19946;SDS011;10135;50.702;7.276;2022-10-01T05:38:13;0.50;;;0.50;;
19946;SDS011;10135;50.702;7.276;2022-10-01T05:40:14;0.67;;;0.67;;
19946;SDS011;10135;50.702;7.276;2022-10-01T05:42:15;0.50;;;0.50;;
19946;SDS011;10135;50.702;7.276;2022-10-01T05:44:16;0.50;;;0.50;;
19946;SDS011;10135;50.702;7.276;2022-10-01T05:46:17;0.47;;;0.47;;
19946;SDS011;10135;50.702;7.276;2022-10-01T05:48:18;0.57;;;0.57;;
19946;SDS011;10135;50.702;7.276;2022-10-01T05:50:19;0.50;;;0.50;;
19946;SDS011;10135;50.702;7.276;2022-10-01T05:52:19;0.50;;;0.50;;
19946;SDS011;10135;50.702;7.276;2022-10-01T05:54:20;0.60;;;0.60;;
19946;SDS011;10135;50.702;7.276;2022-10-01T05:56:22;0.50;;;0.50;;
19946;SDS011;10135;50.702;7.276;2022-10-01T05:58:23;0.57;;;0.57;;
19946;SDS011;10135;50.702;7.276;2022-10-01T06:00:23;0.67;;;0.53;;
19946;SDS011;10135;50.702;7.276;2022-10-01T06:02:27;0.50;;;0.50;;
19946;SDS011;10135;50.702;7.276;2022-10-01T06:04:28;0.50;;;0.50;;
19946;SDS011;10135;50.702;7.276;2022-10-01T06:06:29;0.40;;;0.40;;
19946;SDS011;10135;50.702;7.276;2022-10-01T06:08:33;0.40;;;0.40;;
19946;SDS011;10135;50.702;7.276;2022-10-01T06:10:34;0.50;;;0.50;;
19946;SDS011;10135;50.702;7.276;2022-10-01T06:12:35;0.70;;;0.70;;
19946;SDS011;10135;50.702;7.276;2022-10-01T06:14:36;0.40;;;0.40;;
19946;SDS011;10135;50.702;7.276;2022-10-01T06:16:37;0.50;;;0.50;;
19946;SDS011;10135;50.702;7.276;2022-10-01T06:18:39;0.50;;;0.50;;
19946;SDS011;10135;50.702;7.276;2022-10-01T06:20:40;0.77;;;0.40;;
19946;SDS011;10135;50.702;7.276;2022-10-01T06:22:41;0.40;;;0.40;;
19946;SDS011;10135;50.702;7.276;2022-10-01T06:24:43;0.30;;;0.30;;
19946;SDS011;10135;50.702;7.276;2022-10-01T06:26:43;0.30;;;0.30;;
19946;SDS011;10135;50.702;7.276;2022-10-01T06:28:44;0.40;;;0.40;;
19946;SDS011;10135;50.702;7.276;2022-10-01T06:30:49;1.70;;;0.50;;
19946;SDS011;10135;50.702;7.276;2022-10-01T06:32:49;0.50;;;0.50;;
19946;SDS011;10135;50.702;7.276;2022-10-01T06:34:50;1.50;;;0.50;;
19946;SDS011;10135;50.702;7.276;2022-10-01T06:36:51;0.50;;;0.50;;
19946;SDS011;10135;50.702;7.276;2022-10-01T06:38:51;0.50;;;0.50;;
19946;SDS011;10135;50.702;7.276;2022-10-01T06:41:01;0.40;;;0.40;;
19946;SDS011;10135;50.702;7.276;2022-10-01T06:43:05;0.50;;;0.50;;
19946;SDS011;10135;50.702;7.276;2022-10-01T06:45:07;0.40;;;0.40;;
19946;SDS011;10135;50.702;7.276;2022-10-01T06:47:08;0.40;;;0.40;;
19946;SDS011;10135;50.702;7.276;2022-10-01T06:49:09;0.40;;;0.40;;
19946;SDS011;10135;50.702;7.276;2022-10-01T06:51:09;0.50;;;0.50;;
19946;SDS011;10135;50.702;7.276;2022-10-01T06:53:11;0.50;;;0.50;;
19946;SDS011;10135;50.702;7.276;2022-10-01T06:55:17;0.40;;;0.40;;
19946;SDS011;10135;50.702;7.276;2022-10-01T06:57:27;0.40;;;0.40;;
19946;SDS011;10135;50.702;7.276;2022-10-01T06:59:28;0.50;;;0.50;;
19946;SDS011;10135;50.702;7.276;2022-10-01T07:01:29;0.47;;;0.47;;
19946;SDS011;10135;50.702;7.276;2022-10-01T07:03:31;1.10;;;0.40;;
19946;SDS011;10135;50.702;7.276;2022-10-01T07:05:32;0.40;;;0.40;;
19946;SDS011;10135;50.702;7.276;2022-10-01T07:07:33;0.40;;;0.40;;
19946;SDS011;10135;50.702;7.276;2022-10-01T07:09:36;0.30;;;0.30;;
19946;SDS011;10135;50.702;7.276;2022-10-01T07:11:37;0.73;;;0.40;;
19946;SDS011;10135;50.702;7.276;2022-10-01T07:13:40;0.50;;;0.50;;
19946;SDS011;10135;50.702;7.276;2022-10-01T07:15:41;0.33;;;0.33;;
19946;SDS011;10135;50.702;7.276;2022-10-01T07:17:44;0.33;;;0.33;;
19946;SDS011;10135;50.702;7.276;2022-10-01T07:19:48;0.40;;;0.40;;
19946;SDS011;10135;50.702;7.276;2022-10-01T07:21:49;0.50;;;0.50;;
19946;SDS011;10135;50.702;7.276;2022-10-01T07:23:49;0.50;;;0.50;;
19946;SDS011;10135;50.702;7.276;2022-10-01T07:25:50;0.60;;;0.60;;
19946;SDS011;10135;50.702;7.276;2022-10-01T07:27:54;0.60;;;0.60;;
19946;SDS011;10135;50.702;7.276;2022-10-01T07:29:57;0.70;;;0.70;;
19946;SDS011;10135;50.702;7.276;2022-10-01T07:31:58;0.67;;;0.67;;
19946;SDS011;10135;50.702;7.276;2022-10-01T07:34:00;0.53;;;0.53;;
19946;SDS011;10135;50.702;7.276;2022-10-01T07:36:02;0.50;;;0.50;;
19946;SDS011;10135;50.702;7.276;2022-10-01T07:38:05;0.63;;;0.63;;
19946;SDS011;10135;50.702;7.276;2022-10-01T07:40:07;0.43;;;0.43;;
19946;SDS011;10135;50.702;7.276;2022-10-01T07:42:08;0.60;;;0.60;;
19946;SDS011;10135;50.702;7.276;2022-10-01T07:44:09;0.40;;;0.40;;
19946;SDS011;10135;50.702;7.276;2022-10-01T07:46:12;1.73;;;0.47;;
19946;SDS011;10135;50.702;7.276;2022-10-01T07:48:13;0.50;;;0.50;;
19946;SDS011;10135;50.702;7.276;2022-10-01T07:50:14;0.40;;;0.40;;
19946;SDS011;10135;50.702;7.276;2022-10-01T07:52:15;0.60;;;0.60;;
19946;SDS011;10135;50.702;7.276;2022-10-01T07:54:15;0.50;;;0.50;;
19946;SDS011;10135;50.702;7.276;2022-10-01T07:56:17;0.77;;;0.50;;
19946;SDS011;10135;50.702;7.276;2022-10-01T07:58:17;0.40;;;0.40;;
19946;SDS011;10135;50.702;7.276;2022-10-01T08:00:23;0.53;;;0.50;;
19946;SDS011;10135;50.702;7.276;2022-10-01T08:02:25;0.30;;;0.30;;
19946;SDS011;10135;50.702;7.276;2022-10-01T08:04:26;0.40;;;0.40;;
19946;SDS011;10135;50.702;7.276;2022-10-01T08:06:45;0.50;;;0.50;;
19946;SDS011;10135;50.702;7.276;2022-10-01T08:08:48;0.40;;;0.40;;
19946;SDS011;10135;50.702;7.276;2022-10-01T08:10:48;0.40;;;0.40;;
19946;SDS011;10135;50.702;7.276;2022-10-01T08:12:49;0.40;;;0.40;;
19946;SDS011;10135;50.702;7.276;2022-10-01T08:14:50;0.40;;;0.40;;
19946;SDS011;10135;50.702;7.276;2022-10-01T08:16:53;0.40;;;0.40;;
19946;SDS011;10135;50.702;7.276;2022-10-01T08:18:54;0.40;;;0.40;;
19946;SDS011;10135;50.702;7.276;2022-10-01T08:20:55;0.40;;;0.40;;
19946;SDS011;10135;50.702;7.276;2022-10-01T08:23:02;1.47;;;0.40;;
19946;SDS011;10135;50.702;7.276;2022-10-01T08:25:05;0.30;;;0.30;;
19946;SDS011;10135;50.702;7.276;2022-10-01T08:27:06;0.47;;;0.47;;
19946;SDS011;10135;50.702;7.276;2022-10-01T08:29:07;0.53;;;0.53;;
19946;SDS011;10135;50.702;7.276;2022-10-01T08:31:08;0.40;;;0.40;;
19946;SDS011;10135;50.702;7.276;2022-10-01T08:33:09;0.30;;;0.30;;
19946;SDS011;10135;50.702;7.276;2022-10-01T08:35:11;0.33;;;0.33;;
19946;SDS011;10135;50.702;7.276;2022-10-01T08:37:12;0.30;;;0.30;;
19946;SDS011;10135;50.702;7.276;2022-10-01T08:39:13;0.30;;;0.30;;
19946;SDS011;10135;50.702;7.276;2022-10-01T08:43:43;1.23;;;0.30;;
19946;SDS011;10135;50.702;7.276;2022-10-01T08:45:44;0.40;;;0.40;;
19946;SDS011;10135;50.702;7.276;2022-10-01T08:48:02;0.30;;;0.30;;
19946;SDS011;10135;50.702;7.276;2022-10-01T08:50:13;0.40;;;0.40;;
19946;SDS011;10135;50.702;7.276;2022-10-01T08:52:31;0.27;;;0.27;;
19946;SDS011;10135;50.702;7.276;2022-10-01T08:54:43;1.23;;;0.30;;
19946;SDS011;10135;50.702;7.276;2022-10-01T08:56:51;0.30;;;0.30;;
19946;SDS011;10135;50.702;7.276;2022-10-01T08:58:59;0.30;;;0.30;;
19946;SDS011;10135;50.702;7.276;2022-10-01T09:01:16;0.40;;;0.40;;
19946;SDS011;10135;50.702;7.276;2022-10-01T09:03:18;0.40;;;0.40;;
19946;SDS011;10135;50.702;7.276;2022-10-01T09:05:21;0.67;;;0.40;;
19946;SDS011;10135;50.702;7.276;2022-10-01T09:10:42;0.47;;;0.47;;
19946;SDS011;10135;50.702;7.276;2022-10-01T09:12:52;1.20;;;0.50;;
19946;SDS011;10135;50.702;7.276;2022-10-01T09:20:05;0.73;;;0.73;;
19946;SDS011;10135;50.702;7.276;2022-10-01T09:22:27;0.57;;;0.57;;
19946;SDS011;10135;50.702;7.276;2022-10-01T09:24:50;0.70;;;0.70;;
19946;SDS011;10135;50.702;7.276;2022-10-01T09:29:26;0.70;;;0.70;;
19946;SDS011;10135;50.702;7.276;2022-10-01T09:31:40;0.73;;;0.73;;
19946;SDS011;10135;50.702;7.276;2022-10-01T09:33:49;1.30;;;0.80;;
19946;SDS011;10135;50.702;7.276;2022-10-01T09:36:06;0.60;;;0.60;;
19946;SDS011;10135;50.702;7.276;2022-10-01T09:38:31;0.50;;;0.50;;
19946;SDS011;10135;50.702;7.276;2022-10-01T09:42:59;0.60;;;0.60;;
19946;SDS011;10135;50.702;7.276;2022-10-01T09:45:01;0.50;;;0.50;;
19946;SDS011;10135;50.702;7.276;2022-10-01T09:47:02;0.93;;;0.50;;
19946;SDS011;10135;50.702;7.276;2022-10-01T09:49:24;0.60;;;0.60;;
19946;SDS011;10135;50.702;7.276;2022-10-01T09:51:47;0.50;;;0.50;;
19946;SDS011;10135;50.702;7.276;2022-10-01T09:54:42;0.47;;;0.47;;
19946;SDS011;10135;50.702;7.276;2022-10-01T09:56:27;0.40;;;0.40;;
19946;SDS011;10135;50.702;7.276;2022-10-01T09:58:36;0.50;;;0.50;;
19946;SDS011;10135;50.702;7.276;2022-10-01T10:00:41;0.40;;;0.40;;
19946;SDS011;10135;50.702;7.276;2022-10-01T10:02:44;0.80;;;0.80;;
19946;SDS011;10135;50.702;7.276;2022-10-01T10:04:59;0.50;;;0.50;;
19946;SDS011;10135;50.702;7.276;2022-10-01T10:07:02;0.60;;;0.60;;
19946;SDS011;10135;50.702;7.276;2022-10-01T10:09:10;0.70;;;0.70;;
19946;SDS011;10135;50.702;7.276;2022-10-01T10:11:21;0.70;;;0.70;;
19946;SDS011;10135;50.702;7.276;2022-10-01T10:15:53;2.10;;;0.67;;
19946;SDS011;10135;50.702;7.276;2022-10-01T10:18:11;0.40;;;0.40;;
19946;SDS011;10135;50.702;7.276;2022-10-01T10:20:22;1.17;;;0.50;;
19946;SDS011;10135;50.702;7.276;2022-10-01T10:22:30;0.87;;;0.40;;
19946;SDS011;10135;50.702;7.276;2022-10-01T10:24:32;0.40;;;0.30;;
19946;SDS011;10135;50.702;7.276;2022-10-01T10:26:36;0.63;;;0.53;;
19946;SDS011;10135;50.702;7.276;2022-10-01T10:28:41;0.50;;;0.50;;
19946;SDS011;10135;50.702;7.276;2022-10-01T10:30:45;0.40;;;0.40;;
19946;SDS011;10135;50.702;7.276;2022-10-01T10:32:47;0.67;;;0.53;;
19946;SDS011;10135;50.702;7.276;2022-10-01T10:34:47;0.50;;;0.50;;
19946;SDS011;10135;50.702;7.276;2022-10-01T10:36:55;0.53;;;0.53;;
19946;SDS011;10135;50.702;7.276;2022-10-01T10:38:58;0.90;;;0.90;;
19946;SDS011;10135;50.702;7.276;2022-10-01T10:41:00;1.87;;;0.87;;
19946;SDS011;10135;50.702;7.276;2022-10-01T10:43:02;2.77;;;0.90;;
19946;SDS011;10135;50.702;7.276;2022-10-01T10:45:07;0.80;;;0.80;;
19946;SDS011;10135;50.702;7.276;2022-10-01T10:47:17;1.77;;;0.90;;
19946;SDS011;10135;50.702;7.276;2022-10-01T10:49:24;0.90;;;0.90;;
19946;SDS011;10135;50.702;7.276;2022-10-01T10:51:29;1.77;;;0.90;;
19946;SDS011;10135;50.702;7.276;2022-10-01T10:53:43;1.27;;;0.73;;
19946;SDS011;10135;50.702;7.276;2022-10-01T10:55:55;1.97;;;1.00;;
19946;SDS011;10135;50.702;7.276;2022-10-01T11:00:42;1.07;;;1.07;;
19946;SDS011;10135;50.702;7.276;2022-10-01T11:05:20;2.80;;;1.30;;
19946;SDS011;10135;50.702;7.276;2022-10-01T11:07:30;2.77;;;1.33;;
19946;SDS011;10135;50.702;7.276;2022-10-01T11:09:44;1.30;;;1.30;;
19946;SDS011;10135;50.702;7.276;2022-10-01T11:12:12;2.67;;;1.30;;
19946;SDS011;10135;50.702;7.276;2022-10-01T11:19:34;4.17;;;1.60;;
19946;SDS011;10135;50.702;7.276;2022-10-01T11:27:17;1.50;;;1.20;;
19946;SDS011;10135;50.702;7.276;2022-10-01T11:36:48;3.03;;;1.43;;
19946;SDS011;10135;50.702;7.276;2022-10-01T11:38:57;3.10;;;1.40;;
19946;SDS011;10135;50.702;7.276;2022-10-01T11:43:21;1.37;;;1.27;;
19946;SDS011;10135;50.702;7.276;2022-10-01T11:45:42;2.15;;;1.30;;
19946;SDS011;10135;50.702;7.276;2022-10-01T11:48:10;2.33;;;1.40;;
19946;SDS011;10135;50.702;7.276;2022-10-01T11:50:28;3.20;;;1.20;;
19946;SDS011;10135;50.702;7.276;2022-10-01T11:55:08;2.70;;;1.23;;
19946;SDS011;10135;50.702;7.276;2022-10-01T11:57:41;1.45;;;1.33;;
19946;SDS011;10135;50.702;7.276;2022-10-01T12:00:05;2.55;;;1.55;;
19946;SDS011;10135;50.702;7.276;2022-10-01T12:02:18;2.60;;;1.55;;
19946;SDS011;10135;50.702;7.276;2022-10-01T12:04:39;2.88;;;1.10;;
19946;SDS011;10135;50.702;7.276;2022-10-01T12:06:59;4.18;;;1.67;;
19946;SDS011;10135;50.702;7.276;2022-10-01T12:09:20;3.25;;;1.35;;
19946;SDS011;10135;50.702;7.276;2022-10-01T12:12:09;3.22;;;1.83;;
19946;SDS011;10135;50.702;7.276;2022-10-01T12:14:11;2.97;;;1.50;;
19946;SDS011;10135;50.702;7.276;2022-10-01T12:16:23;2.13;;;1.55;;
19946;SDS011;10135;50.702;7.276;2022-10-01T12:18:53;1.33;;;1.23;;
19946;SDS011;10135;50.702;7.276;2022-10-01T12:21:06;3.63;;;1.38;;
19946;SDS011;10135;50.702;7.276;2022-10-01T12:23:25;1.92;;;1.40;;
19946;SDS011;10135;50.702;7.276;2022-10-01T12:25:35;2.78;;;1.73;;
19946;SDS011;10135;50.702;7.276;2022-10-01T12:28:03;1.88;;;1.33;;
19946;SDS011;10135;50.702;7.276;2022-10-01T12:30:22;1.15;;;1.05;;
19946;SDS011;10135;50.702;7.276;2022-10-01T12:37:06;1.52;;;1.42;;
19946;SDS011;10135;50.702;7.276;2022-10-01T12:42:18;1.73;;;1.20;;
19946;SDS011;10135;50.702;7.276;2022-10-01T12:49:44;2.92;;;1.58;;
19946;SDS011;10135;50.702;7.276;2022-10-01T12:52:03;1.92;;;1.25;;
19946;SDS011;10135;50.702;7.276;2022-10-01T12:54:45;2.25;;;1.40;;
19946;SDS011;10135;50.702;7.276;2022-10-01T12:56:59;1.88;;;1.35;;
19946;SDS011;10135;50.702;7.276;2022-10-01T13:04:42;1.95;;;1.30;;
19946;SDS011;10135;50.702;7.276;2022-10-01T13:14:42;1.73;;;1.63;;
19946;SDS011;10135;50.702;7.276;2022-10-01T13:19:46;2.53;;;1.40;;
19946;SDS011;10135;50.702;7.276;2022-10-01T13:22:22;2.92;;;1.67;;
19946;SDS011;10135;50.702;7.276;2022-10-01T13:24:57;3.13;;;1.55;;
19946;SDS011;10135;50.702;7.276;2022-10-01T13:31:38;3.03;;;1.80;;
19946;SDS011;10135;50.702;7.276;2022-10-01T13:34:00;2.13;;;1.67;;
19946;SDS011;10135;50.702;7.276;2022-10-01T13:36:03;3.90;;;1.23;;
19946;SDS011;10135;50.702;7.276;2022-10-01T13:38:13;2.38;;;1.80;;
19946;SDS011;10135;50.702;7.276;2022-10-01T13:40:30;2.35;;;1.50;;
19946;SDS011;10135;50.702;7.276;2022-10-01T13:42:40;4.30;;;1.90;;
19946;SDS011;10135;50.702;7.276;2022-10-01T13:44:49;2.80;;;1.42;;
19946;SDS011;10135;50.702;7.276;2022-10-01T13:47:04;3.20;;;1.60;;
19946;SDS011;10135;50.702;7.276;2022-10-01T13:49:15;2.83;;;1.50;;
19946;SDS011;10135;50.702;7.276;2022-10-01T13:51:32;5.15;;;1.45;;
19946;SDS011;10135;50.702;7.276;2022-10-01T13:55:43;2.25;;;1.40;;
19946;SDS011;10135;50.702;7.276;2022-10-01T13:57:46;1.73;;;1.30;;
19946;SDS011;10135;50.702;7.276;2022-10-01T13:59:56;2.35;;;1.40;;
19946;SDS011;10135;50.702;7.276;2022-10-01T14:02:27;2.60;;;1.20;;
19946;SDS011;10135;50.702;7.276;2022-10-01T14:04:39;1.67;;;1.30;;
19946;SDS011;10135;50.702;7.276;2022-10-01T14:06:52;1.90;;;1.35;;
19946;SDS011;10135;50.702;7.276;2022-10-01T14:11:24;2.33;;;1.30;;
19946;SDS011;10135;50.702;7.276;2022-10-01T14:13:48;1.98;;;1.60;;
19946;SDS011;10135;50.702;7.276;2022-10-01T14:16:10;2.72;;;1.60;;
19946;SDS011;10135;50.702;7.276;2022-10-01T14:18:15;1.83;;;1.35;;
19946;SDS011;10135;50.702;7.276;2022-10-01T14:20:23;1.88;;;1.30;;
19946;SDS011;10135;50.702;7.276;2022-10-01T14:22:37;1.30;;;1.20;;
19946;SDS011;10135;50.702;7.276;2022-10-01T14:27:44;2.70;;;1.40;;
19946;SDS011;10135;50.702;7.276;2022-10-01T14:30:14;2.00;;;1.35;;
19946;SDS011;10135;50.702;7.276;2022-10-01T14:35:07;2.38;;;1.40;;
19946;SDS011;10135;50.702;7.276;2022-10-01T14:37:22;2.35;;;1.40;;
19946;SDS011;10135;50.702;7.276;2022-10-01T14:39:24;1.67;;;1.23;;
19946;SDS011;10135;50.702;7.276;2022-10-01T14:41:32;1.52;;;1.35;;
19946;SDS011;10135;50.702;7.276;2022-10-01T14:43:37;2.95;;;1.20;;
19946;SDS011;10135;50.702;7.276;2022-10-01T14:45:51;1.90;;;1.27;;
19946;SDS011;10135;50.702;7.276;2022-10-01T14:48:03;2.75;;;1.45;;
19946;SDS011;10135;50.702;7.276;2022-10-01T14:50:16;5.28;;;1.50;;
19946;SDS011;10135;50.702;7.276;2022-10-01T14:52:23;2.60;;;1.58;;
19946;SDS011;10135;50.702;7.276;2022-10-01T14:54:29;5.53;;;1.40;;
19946;SDS011;10135;50.702;7.276;2022-10-01T14:56:41;3.42;;;1.42;;
19946;SDS011;10135;50.702;7.276;2022-10-01T14:58:42;2.75;;;1.60;;
19946;SDS011;10135;50.702;7.276;2022-10-01T15:00:54;3.65;;;1.40;;
19946;SDS011;10135;50.702;7.276;2022-10-01T15:05:10;2.08;;;1.50;;
19946;SDS011;10135;50.702;7.276;2022-10-01T15:07:23;8.52;;;1.98;;
19946;SDS011;10135;50.702;7.276;2022-10-01T15:09:32;2.35;;;1.30;;
19946;SDS011;10135;50.702;7.276;2022-10-01T15:11:33;3.35;;;1.30;;
19946;SDS011;10135;50.702;7.276;2022-10-01T15:13:34;4.32;;;1.70;;
19946;SDS011;10135;50.702;7.276;2022-10-01T15:15:39;2.70;;;1.50;;
19946;SDS011;10135;50.702;7.276;2022-10-01T15:17:41;3.72;;;1.33;;
19946;SDS011;10135;50.702;7.276;2022-10-01T15:19:43;3.95;;;1.40;;
19946;SDS011;10135;50.702;7.276;2022-10-01T15:23:51;4.15;;;1.42;;
19946;SDS011;10135;50.702;7.276;2022-10-01T15:25:53;2.58;;;1.70;;
19946;SDS011;10135;50.702;7.276;2022-10-01T15:27:57;2.95;;;1.38;;
19946;SDS011;10135;50.702;7.276;2022-10-01T15:29:57;3.10;;;1.42;;
19946;SDS011;10135;50.702;7.276;2022-10-01T15:31:59;2.25;;;1.60;;
19946;SDS011;10135;50.702;7.276;2022-10-01T15:34:02;3.10;;;1.90;;
19946;SDS011;10135;50.702;7.276;2022-10-01T15:36:15;3.95;;;1.67;;
19946;SDS011;10135;50.702;7.276;2022-10-01T15:38:18;5.65;;;2.22;;
19946;SDS011;10135;50.702;7.276;2022-10-01T15:40:19;2.38;;;1.40;;
19946;SDS011;10135;50.702;7.276;2022-10-01T15:42:24;3.45;;;1.63;;
19946;SDS011;10135;50.702;7.276;2022-10-01T15:44:46;7.45;;;1.80;;
19946;SDS011;10135;50.702;7.276;2022-10-01T15:46:48;3.97;;;1.65;;
19946;SDS011;10135;50.702;7.276;2022-10-01T15:51:18;4.32;;;2.10;;
19946;SDS011;10135;50.702;7.276;2022-10-01T15:53:26;2.03;;;1.60;;
19946;SDS011;10135;50.702;7.276;2022-10-01T15:55:29;3.17;;;1.58;;
19946;SDS011;10135;50.702;7.276;2022-10-01T15:57:41;3.90;;;1.95;;
19946;SDS011;10135;50.702;7.276;2022-10-01T15:59:43;2.72;;;1.63;;
19946;SDS011;10135;50.702;7.276;2022-10-01T16:01:45;4.25;;;1.88;;
19946;SDS011;10135;50.702;7.276;2022-10-01T16:03:47;3.00;;;1.70;;
19946;SDS011;10135;50.702;7.276;2022-10-01T16:05:55;8.23;;;1.95;;
19946;SDS011;10135;50.702;7.276;2022-10-01T16:08:00;4.38;;;1.60;;
19946;SDS011;10135;50.702;7.276;2022-10-01T16:12:28;4.65;;;2.03;;
19946;SDS011;10135;50.702;7.276;2022-10-01T16:14:37;4.93;;;1.90;;
19946;SDS011;10135;50.702;7.276;2022-10-01T16:16:42;5.13;;;2.00;;
19946;SDS011;10135;50.702;7.276;2022-10-01T16:18:46;3.80;;;1.80;;
19946;SDS011;10135;50.702;7.276;2022-10-01T16:21:19;3.60;;;1.48;;
19946;SDS011;10135;50.702;7.276;2022-10-01T16:25:42;5.77;;;2.07;;
19946;SDS011;10135;50.702;7.276;2022-10-01T16:27:44;7.70;;;1.98;;
19946;SDS011;10135;50.702;7.276;2022-10-01T16:30:10;7.43;;;1.87;;
19946;SDS011;10135;50.702;7.276;2022-10-01T16:32:20;6.00;;;1.70;;
19946;SDS011;10135;50.702;7.276;2022-10-01T16:34:21;4.55;;;1.83;;
19946;SDS011;10135;50.702;7.276;2022-10-01T16:36:25;2.90;;;1.40;;
19946;SDS011;10135;50.702;7.276;2022-10-01T16:38:26;9.27;;;1.77;;
19946;SDS011;10135;50.702;7.276;2022-10-01T16:40:27;3.10;;;1.60;;
19946;SDS011;10135;50.702;7.276;2022-10-01T16:42:31;1.60;;;1.50;;
19946;SDS011;10135;50.702;7.276;2022-10-01T16:44:33;9.40;;;1.73;;
19946;SDS011;10135;50.702;7.276;2022-10-01T16:46:38;3.60;;;1.50;;
19946;SDS011;10135;50.702;7.276;2022-10-01T16:48:40;3.43;;;1.70;;
19946;SDS011;10135;50.702;7.276;2022-10-01T16:50:41;3.07;;;1.60;;
19946;SDS011;10135;50.702;7.276;2022-10-01T16:52:44;6.00;;;1.70;;
19946;SDS011;10135;50.702;7.276;2022-10-01T16:54:45;8.40;;;1.70;;
19946;SDS011;10135;50.702;7.276;2022-10-01T16:56:47;4.70;;;2.13;;
19946;SDS011;10135;50.702;7.276;2022-10-01T16:58:49;5.53;;;2.00;;
19946;SDS011;10135;50.702;7.276;2022-10-01T17:00:51;3.63;;;1.60;;
19946;SDS011;10135;50.702;7.276;2022-10-01T17:02:53;3.97;;;1.80;;
19946;SDS011;10135;50.702;7.276;2022-10-01T17:04:56;4.87;;;2.10;;
19946;SDS011;10135;50.702;7.276;2022-10-01T17:06:56;4.90;;;2.10;;
19946;SDS011;10135;50.702;7.276;2022-10-01T17:08:57;4.60;;;1.90;;
19946;SDS011;10135;50.702;7.276;2022-10-01T17:10:59;9.17;;;2.13;;
19946;SDS011;10135;50.702;7.276;2022-10-01T17:13:01;3.43;;;1.47;;
19946;SDS011;10135;50.702;7.276;2022-10-01T17:15:02;4.70;;;1.70;;
19946;SDS011;10135;50.702;7.276;2022-10-01T17:17:04;4.23;;;1.77;;
19946;SDS011;10135;50.702;7.276;2022-10-01T17:19:05;5.23;;;1.50;;
19946;SDS011;10135;50.702;7.276;2022-10-01T17:21:07;2.30;;;1.70;;
19946;SDS011;10135;50.702;7.276;2022-10-01T17:23:09;5.00;;;1.70;;
19946;SDS011;10135;50.702;7.276;2022-10-01T17:25:13;4.30;;;1.70;;
19946;SDS011;10135;50.702;7.276;2022-10-01T17:27:16;3.13;;;1.40;;
19946;SDS011;10135;50.702;7.276;2022-10-01T17:29:17;4.30;;;1.73;;
19946;SDS011;10135;50.702;7.276;2022-10-01T17:31:18;2.90;;;1.67;;
19946;SDS011;10135;50.702;7.276;2022-10-01T17:33:18;3.97;;;2.07;;
19946;SDS011;10135;50.702;7.276;2022-10-01T17:35:19;6.80;;;1.97;;
19946;SDS011;10135;50.702;7.276;2022-10-01T17:37:20;3.67;;;1.90;;
19946;SDS011;10135;50.702;7.276;2022-10-01T17:39:22;4.00;;;1.90;;
19946;SDS011;10135;50.702;7.276;2022-10-01T17:41:23;3.20;;;2.03;;
19946;SDS011;10135;50.702;7.276;2022-10-01T17:43:24;3.90;;;2.00;;
19946;SDS011;10135;50.702;7.276;2022-10-01T17:45:25;3.37;;;1.87;;
19946;SDS011;10135;50.702;7.276;2022-10-01T17:47:25;3.80;;;1.80;;
19946;SDS011;10135;50.702;7.276;2022-10-01T17:49:26;5.10;;;2.00;;
19946;SDS011;10135;50.702;7.276;2022-10-01T17:51:27;3.50;;;1.70;;
19946;SDS011;10135;50.702;7.276;2022-10-01T17:53:27;3.67;;;1.83;;
19946;SDS011;10135;50.702;7.276;2022-10-01T17:55:28;3.47;;;1.63;;
19946;SDS011;10135;50.702;7.276;2022-10-01T17:57:30;3.87;;;2.03;;
19946;SDS011;10135;50.702;7.276;2022-10-01T17:59:31;5.77;;;2.03;;
19946;SDS011;10135;50.702;7.276;2022-10-01T18:01:31;4.43;;;1.80;;
19946;SDS011;10135;50.702;7.276;2022-10-01T18:03:32;3.23;;;1.97;;
19946;SDS011;10135;50.702;7.276;2022-10-01T18:05:33;2.30;;;1.80;;
19946;SDS011;10135;50.702;7.276;2022-10-01T18:07:36;3.87;;;1.93;;
19946;SDS011;10135;50.702;7.276;2022-10-01T18:09:37;5.00;;;2.30;;
19946;SDS011;10135;50.702;7.276;2022-10-01T18:11:41;4.73;;;1.87;;
19946;SDS011;10135;50.702;7.276;2022-10-01T18:13:42;3.20;;;1.77;;
19946;SDS011;10135;50.702;7.276;2022-10-01T18:15:42;5.67;;;2.17;;
19946;SDS011;10135;50.702;7.276;2022-10-01T18:17:43;2.70;;;1.70;;
19946;SDS011;10135;50.702;7.276;2022-10-01T18:19:44;3.03;;;1.70;;
19946;SDS011;10135;50.702;7.276;2022-10-01T18:21:45;4.63;;;1.90;;
19946;SDS011;10135;50.702;7.276;2022-10-01T18:23:46;3.43;;;2.00;;
19946;SDS011;10135;50.702;7.276;2022-10-01T18:25:47;2.97;;;1.90;;
19946;SDS011;10135;50.702;7.276;2022-10-01T18:27:47;6.60;;;2.20;;
19946;SDS011;10135;50.702;7.276;2022-10-01T18:29:51;3.00;;;1.90;;
19946;SDS011;10135;50.702;7.276;2022-10-01T18:32:03;4.03;;;1.90;;
19946;SDS011;10135;50.702;7.276;2022-10-01T18:34:26;4.30;;;2.00;;
19946;SDS011;10135;50.702;7.276;2022-10-01T18:39:08;5.27;;;1.90;;
19946;SDS011;10135;50.702;7.276;2022-10-01T18:41:37;14.10;;;2.17;;
19946;SDS011;10135;50.702;7.276;2022-10-01T18:43:40;3.07;;;1.90;;
19946;SDS011;10135;50.702;7.276;2022-10-01T18:48:25;4.83;;;1.83;;
19946;SDS011;10135;50.702;7.276;2022-10-01T18:56:02;2.17;;;1.90;;
19946;SDS011;10135;50.702;7.276;2022-10-01T19:00:32;4.43;;;2.03;;
19946;SDS011;10135;50.702;7.276;2022-10-01T19:13:33;4.70;;;2.37;;
19946;SDS011;10135;50.702;7.276;2022-10-01T19:16:25;4.70;;;2.40;;
19946;SDS011;10135;50.702;7.276;2022-10-01T19:18:45;5.00;;;2.27;;
19946;SDS011;10135;50.702;7.276;2022-10-01T19:24:07;7.10;;;3.30;;
19946;SDS011;10135;50.702;7.276;2022-10-01T19:31:50;6.73;;;3.30;;
19946;SDS011;10135;50.702;7.276;2022-10-01T19:36:42;7.43;;;3.13;;
19946;SDS011;10135;50.702;7.276;2022-10-01T19:38:52;8.37;;;2.80;;
19946;SDS011;10135;50.702;7.276;2022-10-01T19:41:17;10.13;;;3.77;;
19946;SDS011;10135;50.702;7.276;2022-10-01T19:43:40;6.67;;;3.47;;
19946;SDS011;10135;50.702;7.276;2022-10-01T19:45:50;6.50;;;3.20;;
19946;SDS011;10135;50.702;7.276;2022-10-01T19:48:10;5.40;;;3.23;;
19946;SDS011;10135;50.702;7.276;2022-10-01T19:50:21;7.57;;;3.43;;
19946;SDS011;10135;50.702;7.276;2022-10-01T19:52:29;5.23;;;3.23;;
19946;SDS011;10135;50.702;7.276;2022-10-01T19:54:42;5.27;;;2.80;;
19946;SDS011;10135;50.702;7.276;2022-10-01T19:56:54;4.67;;;2.60;;
19946;SDS011;10135;50.702;7.276;2022-10-01T19:59:13;5.60;;;2.73;;
19946;SDS011;10135;50.702;7.276;2022-10-01T20:01:20;6.00;;;2.50;;
19946;SDS011;10135;50.702;7.276;2022-10-01T20:03:35;5.93;;;2.40;;
19946;SDS011;10135;50.702;7.276;2022-10-01T20:05:48;5.63;;;2.37;;
19946;SDS011;10135;50.702;7.276;2022-10-01T20:10:20;8.87;;;2.17;;
19946;SDS011;10135;50.702;7.276;2022-10-01T20:12:36;6.60;;;2.47;;
19946;SDS011;10135;50.702;7.276;2022-10-01T20:17:18;6.07;;;2.30;;
19946;SDS011;10135;50.702;7.276;2022-10-01T20:19:27;5.40;;;2.10;;
19946;SDS011;10135;50.702;7.276;2022-10-01T20:22:01;5.77;;;2.27;;
19946;SDS011;10135;50.702;7.276;2022-10-01T20:26:48;3.83;;;2.10;;
19946;SDS011;10135;50.702;7.276;2022-10-01T20:32:02;3.43;;;1.70;;
19946;SDS011;10135;50.702;7.276;2022-10-01T20:34:44;8.03;;;2.10;;
19946;SDS011;10135;50.702;7.276;2022-10-01T20:39:40;5.93;;;1.97;;
19946;SDS011;10135;50.702;7.276;2022-10-01T20:41:49;4.43;;;1.90;;
19946;SDS011;10135;50.702;7.276;2022-10-01T20:43:56;2.33;;;1.93;;
19946;SDS011;10135;50.702;7.276;2022-10-01T20:48:33;2.97;;;2.00;;
19946;SDS011;10135;50.702;7.276;2022-10-01T20:50:38;1.93;;;1.50;;
19946;SDS011;10135;50.702;7.276;2022-10-01T20:55:05;4.37;;;1.60;;